createdAt,value
2019-03-01T00:00:59.775Z,66.19
2019-03-01T00:03:28.946Z,66.54
2019-03-01T00:06:18.580Z,67.05
2019-03-01T00:08:52.976Z,67.03
2019-03-01T00:11:30.655Z,67.15
2019-03-01T00:14:05.045Z,67.01
2019-03-01T00:17:09.095Z,67.52
2019-03-01T00:20:13.866Z,67.84
2019-03-01T00:23:13.987Z,67.55
2019-03-01T00:25:48.170Z,67.78
2019-03-01T00:28:46.726Z,68.61
2019-03-01T00:31:31.029Z,68.22
2019-03-01T00:34:08.546Z,69.57
2019-03-01T00:36:46.246Z,70.16
2019-03-01T00:39:41.909Z,69.58
2019-03-01T00:42:24.776Z,69.78
2019-03-01T00:44:53.412Z,71.37
2019-03-01T00:47:21.985Z,71.93
2019-03-01T00:49:50.492Z,71.42
2019-03-01T00:52:19.009Z,72.17
2019-03-01T00:54:47.559Z,71.75
2019-03-01T00:57:16.144Z,71.51
2019-03-01T00:59:44.842Z,71.61
2019-03-01T01:02:13.442Z,71.38
2019-03-01T01:04:42.292Z,72.62
2019-03-01T01:07:10.778Z,72.42
2019-03-01T01:09:39.318Z,72.81
2019-03-01T01:12:07.945Z,73.36
2019-03-01T01:14:36.504Z,73.09
2019-03-01T01:17:05.370Z,73.26
2019-03-01T01:19:33.960Z,72.53
2019-03-01T01:22:02.890Z,73.07
2019-03-01T01:24:31.525Z,72.47
2019-03-01T01:27:00.219Z,74.05
2019-03-01T01:29:28.800Z,73.75
2019-03-01T01:31:57.427Z,73.99
2019-03-01T01:34:26.047Z,73.99
2019-03-01T01:36:54.681Z,74.04
2019-03-01T01:39:23.321Z,73.27
2019-03-01T01:41:51.951Z,74.09
2019-03-01T01:44:20.496Z,73.14
2019-03-01T01:46:49.010Z,72.75
2019-03-01T01:49:19.069Z,73.02
2019-03-01T01:51:47.644Z,73.44
2019-03-01T01:54:16.304Z,73.48
2019-03-01T01:56:44.890Z,74.76
2019-03-01T01:59:13.440Z,74.72
2019-03-01T02:01:42.514Z,72.81
2019-03-01T02:04:11.091Z,73.80
2019-03-01T02:06:39.770Z,74.03
2019-03-01T02:09:17.190Z,73.37
2019-03-01T02:11:45.837Z,74.19
2019-03-01T02:14:14.655Z,74.33
2019-03-01T02:16:43.230Z,73.83
2019-03-01T02:19:11.794Z,74.01
2019-03-01T02:21:40.241Z,73.71
2019-03-01T02:24:08.820Z,73.43
2019-03-01T02:26:37.399Z,72.84
2019-03-01T02:29:06.021Z,73.87
2019-03-01T02:31:38.768Z,73.94
2019-03-01T02:34:07.285Z,73.11
2019-03-01T02:36:35.919Z,73.64
2019-03-01T02:39:05.035Z,78.69
2019-03-01T02:41:33.866Z,74.54
2019-03-01T02:44:02.535Z,72.53
2019-03-01T02:46:31.224Z,72.84
2019-03-01T02:48:59.813Z,73.45
2019-03-01T02:51:28.448Z,73.17
2019-03-01T02:53:56.924Z,73.89
2019-03-01T02:56:25.482Z,75.18
2019-03-01T02:58:54.103Z,74.19
2019-03-01T03:01:22.698Z,74.95
2019-03-01T03:03:51.261Z,74.33
2019-03-01T03:06:37.279Z,75.42
2019-03-01T03:09:08.380Z,75.16
2019-03-01T03:11:37.039Z,75.02
2019-03-01T03:14:05.694Z,75.04
2019-03-01T03:16:34.313Z,75.69
2019-03-01T03:19:02.918Z,76.24
2019-03-01T03:21:31.474Z,75.55
2019-03-01T03:23:59.993Z,73.19
2019-03-01T03:26:29.456Z,73.83
2019-03-01T03:28:58.118Z,73.92
2019-03-01T03:31:26.670Z,74.66
2019-03-01T03:33:55.208Z,74.87
2019-03-01T03:36:23.667Z,75.06
2019-03-01T03:38:52.269Z,75.11
2019-03-01T03:41:20.890Z,75.98
2019-03-01T03:43:49.588Z,75.58
2019-03-01T03:46:18.155Z,75.58
2019-03-01T03:48:46.688Z,75.54
2019-03-01T03:51:15.311Z,75.94
2019-03-01T03:53:43.936Z,76.19
2019-03-01T03:56:12.729Z,76.62
2019-03-01T03:58:41.525Z,74.77
2019-03-01T04:01:10.206Z,74.84
2019-03-01T04:03:39.007Z,74.60
2019-03-01T04:06:07.485Z,75.47
2019-03-01T04:08:36.160Z,75.38
2019-03-01T04:11:04.998Z,74.54
2019-03-01T04:13:33.618Z,75.36
2019-03-01T04:16:02.288Z,75.09
2019-03-01T04:18:30.878Z,75.15
2019-03-01T04:20:59.492Z,75.17
2019-03-01T04:23:28.104Z,75.50
2019-03-01T04:25:56.770Z,75.93
2019-03-01T04:28:25.311Z,75.92
2019-03-01T04:30:56.524Z,76.99
2019-03-01T04:33:25.132Z,75.01
2019-03-01T04:35:53.628Z,73.84
2019-03-01T04:38:22.181Z,74.21
2019-03-01T04:40:50.699Z,73.36
2019-03-01T04:43:19.200Z,74.07
2019-03-01T04:45:47.739Z,75.04
2019-03-01T04:48:16.243Z,75.70
2019-03-01T04:50:44.880Z,75.20
2019-03-01T04:53:13.474Z,75.56
2019-03-01T04:55:41.998Z,75.75
2019-03-01T04:58:10.605Z,76.25
2019-03-01T05:00:39.228Z,74.97
2019-03-01T05:03:07.749Z,74.56
2019-03-01T05:05:36.443Z,78.23
2019-03-01T05:08:05.672Z,73.55
2019-03-01T05:10:34.229Z,74.60
2019-03-01T05:13:02.867Z,74.71
2019-03-01T05:15:32.657Z,75.11
2019-03-01T05:18:01.619Z,73.85
2019-03-01T05:20:31.175Z,73.97
2019-03-01T05:23:00.062Z,74.50
2019-03-01T05:25:28.654Z,73.92
2019-03-01T05:27:57.282Z,73.95
2019-03-01T05:30:25.893Z,73.98
2019-03-01T05:32:54.452Z,72.42
2019-03-01T05:35:22.982Z,72.82
2019-03-01T05:37:51.664Z,74.33
2019-03-01T05:40:20.261Z,73.52
2019-03-01T05:42:48.968Z,74.78
2019-03-01T05:45:20.437Z,73.51
2019-03-01T05:47:49.081Z,73.52
2019-03-01T05:50:17.667Z,73.91
2019-03-01T05:52:46.228Z,74.87
2019-03-01T05:55:14.931Z,74.00
2019-03-01T05:58:21.283Z,74.61
2019-03-01T06:00:51.271Z,75.33
2019-03-01T06:03:28.797Z,75.31
2019-03-01T06:05:57.404Z,74.34
2019-03-01T06:08:37.858Z,74.81
2019-03-01T06:11:09.959Z,74.22
2019-03-01T06:13:50.364Z,72.96
2019-03-01T06:16:32.112Z,74.28
2019-03-01T06:19:15.833Z,74.34
2019-03-01T06:22:14.901Z,74.11
2019-03-01T06:25:03.299Z,73.08
2019-03-01T06:27:43.803Z,72.78
2019-03-01T06:30:36.403Z,73.79
2019-03-01T06:33:35.590Z,74.24
2019-03-01T06:36:26.097Z,73.72
2019-03-01T06:39:35.864Z,74.13
2019-03-01T06:42:13.988Z,73.27
2019-03-01T06:44:51.263Z,73.63
2019-03-01T06:47:44.972Z,73.34
2019-03-01T06:50:21.257Z,72.35
2019-03-01T06:52:49.884Z,72.99
2019-03-01T06:55:30.205Z,74.12
2019-03-01T06:57:58.817Z,73.09
2019-03-01T07:00:28.472Z,72.89
2019-03-01T07:03:01.109Z,74.41
2019-03-01T07:05:29.751Z,75.18
2019-03-01T07:07:58.447Z,73.84
2019-03-01T07:10:27.074Z,74.46
2019-03-01T07:12:55.681Z,75.10
2019-03-01T07:15:24.264Z,75.05
2019-03-01T07:17:52.963Z,74.34
2019-03-01T07:20:21.399Z,74.22
2019-03-01T07:22:49.995Z,74.42
2019-03-01T07:25:18.584Z,74.09
2019-03-01T07:27:47.239Z,74.10
2019-03-01T07:30:16.063Z,74.16
2019-03-01T07:32:44.573Z,74.58
2019-03-01T07:35:13.208Z,74.57
2019-03-01T07:37:42.265Z,73.41
2019-03-01T07:40:12.368Z,73.37
2019-03-01T07:42:40.961Z,74.16
2019-03-01T07:45:11.772Z,73.62
2019-03-01T07:47:40.399Z,73.82
2019-03-01T07:50:11.742Z,74.05
2019-03-01T07:52:40.291Z,73.36
2019-03-01T07:55:10.622Z,73.72
2019-03-01T07:57:39.287Z,73.48
2019-03-01T08:00:14.201Z,73.79
2019-03-01T08:02:45.487Z,74.66
2019-03-01T08:05:16.316Z,74.85
2019-03-01T08:07:55.286Z,73.98
2019-03-01T08:10:20.594Z,72.81
2019-03-01T08:12:47.613Z,73.97
2019-03-01T08:15:17.486Z,73.42
2019-03-01T08:17:46.363Z,73.99
2019-03-01T08:20:19.635Z,74.23
2019-03-01T08:22:49.434Z,73.26
2019-03-01T08:25:23.383Z,74.37
2019-03-01T08:27:50.494Z,74.28
2019-03-01T08:30:19.680Z,73.40
2019-03-01T08:32:48.247Z,73.43
2019-03-01T08:35:18.404Z,73.26
2019-03-01T08:37:50.003Z,74.33
2019-03-01T08:40:18.134Z,77.18
2019-03-01T08:42:46.751Z,73.28
2019-03-01T08:45:20.235Z,72.39
2019-03-01T08:47:49.154Z,72.60
2019-03-01T08:50:18.121Z,73.07
2019-03-01T08:52:48.074Z,72.48
2019-03-01T08:55:18.790Z,72.78
2019-03-01T08:57:47.322Z,72.94
2019-03-01T09:00:18.679Z,74.15
2019-03-01T09:02:47.505Z,73.19
2019-03-01T09:05:16.093Z,74.23
2019-03-01T09:07:44.701Z,73.79
2019-03-01T09:10:15.807Z,73.21
2019-03-01T09:12:44.553Z,73.89
2019-03-01T09:15:14.903Z,77.39
2019-03-01T09:17:43.644Z,73.18
2019-03-01T09:20:14.141Z,72.31
2019-03-01T09:22:42.892Z,72.23
2019-03-01T09:25:13.392Z,73.10
2019-03-01T09:27:42.080Z,72.38
2019-03-01T09:30:16.153Z,73.65
2019-03-01T09:32:44.822Z,73.61
2019-03-01T09:35:33.728Z,73.74
2019-03-01T09:38:04.463Z,73.37
2019-03-01T09:40:32.791Z,73.67
2019-03-01T09:43:01.376Z,74.37
2019-03-01T09:45:36.311Z,74.76
2019-03-01T09:48:00.272Z,75.40
2019-03-01T09:50:31.634Z,79.08
2019-03-01T09:52:59.860Z,74.37
2019-03-01T09:55:28.595Z,72.43
2019-03-01T09:57:57.257Z,73.07
2019-03-01T10:00:31.523Z,71.93
2019-03-01T10:03:00.180Z,72.58
2019-03-01T10:05:28.819Z,73.48
2019-03-01T10:07:57.438Z,74.85
2019-03-01T10:10:34.192Z,74.20
2019-03-01T10:13:02.932Z,74.21
2019-03-01T10:15:31.543Z,75.58
2019-03-01T10:18:00.163Z,74.45
2019-03-01T10:20:28.768Z,73.73
2019-03-01T10:22:57.623Z,74.36
2019-03-01T10:25:26.160Z,76.81
2019-03-01T10:27:54.846Z,76.09
2019-03-01T10:30:24.574Z,73.45
2019-03-01T10:32:59.420Z,73.53
2019-03-01T10:35:28.195Z,73.95
2019-03-01T10:37:56.910Z,74.33
2019-03-01T10:40:29.090Z,73.86
2019-03-01T10:42:57.901Z,75.62
2019-03-01T10:45:31.201Z,74.37
2019-03-01T10:47:59.932Z,74.73
2019-03-01T10:50:28.691Z,75.80
2019-03-01T10:52:57.282Z,75.12
2019-03-01T10:55:26.011Z,74.56
2019-03-01T10:57:54.850Z,75.40
2019-03-01T11:00:31.411Z,76.37
2019-03-01T11:03:00.027Z,77.11
2019-03-01T11:05:28.736Z,74.67
2019-03-01T11:07:57.650Z,73.74
2019-03-01T11:10:37.806Z,74.13
2019-03-01T11:13:11.523Z,73.50
2019-03-01T11:15:40.149Z,73.48
2019-03-01T11:18:09.907Z,74.47
2019-03-01T11:20:38.640Z,75.23
2019-03-01T11:23:07.375Z,76.36
2019-03-01T11:25:35.976Z,76.53
2019-03-01T11:28:04.610Z,76.79
2019-03-01T11:30:35.307Z,76.06
2019-03-01T11:33:03.906Z,76.23
2019-03-01T11:35:32.596Z,76.60
2019-03-01T11:38:01.289Z,78.10
2019-03-01T11:40:34.039Z,74.74
2019-03-01T11:43:02.887Z,73.94
2019-03-01T11:45:31.510Z,76.26
2019-03-01T11:48:00.235Z,75.99
2019-03-01T11:50:28.834Z,76.78
2019-03-01T11:52:57.458Z,76.28
2019-03-01T11:55:26.077Z,75.58
2019-03-01T11:57:54.707Z,76.38
2019-03-01T12:00:25.050Z,76.41
2019-03-01T12:02:53.868Z,76.15
2019-03-01T12:05:22.745Z,76.01
2019-03-01T12:07:51.369Z,76.16
2019-03-01T12:10:32.467Z,76.26
2019-03-01T12:13:01.026Z,77.00
2019-03-01T12:15:29.630Z,75.11
2019-03-01T12:17:58.335Z,75.34
2019-03-01T12:20:33.611Z,75.40
2019-03-01T12:23:02.213Z,75.45
2019-03-01T12:25:30.884Z,75.33
2019-03-01T12:27:59.925Z,75.30
2019-03-01T12:30:28.628Z,75.13
2019-03-01T12:32:57.277Z,75.85
2019-03-01T12:35:25.967Z,76.48
2019-03-01T12:37:54.600Z,76.29
2019-03-01T12:40:30.432Z,75.36
2019-03-01T12:42:59.218Z,75.81
2019-03-01T12:45:28.034Z,75.73
2019-03-01T12:47:56.786Z,76.11
2019-03-01T12:50:25.490Z,74.62
2019-03-01T12:52:54.115Z,74.87
2019-03-01T12:55:24.075Z,75.28
2019-03-01T12:57:52.706Z,74.45
2019-03-01T13:00:35.542Z,73.99
2019-03-01T13:03:05.114Z,73.29
2019-03-01T13:05:34.589Z,73.16
2019-03-01T13:08:03.226Z,72.80
2019-03-01T13:10:36.824Z,72.93
2019-03-01T13:13:07.987Z,72.88
2019-03-01T13:15:34.099Z,72.44
2019-03-01T13:18:03.621Z,71.74
2019-03-01T13:20:33.902Z,71.54
2019-03-01T13:23:05.017Z,72.37
2019-03-01T13:25:33.142Z,71.22
2019-03-01T13:28:01.729Z,70.28
2019-03-01T13:30:32.568Z,70.27
2019-03-01T13:33:02.262Z,70.56
2019-03-01T13:35:31.201Z,71.32
2019-03-01T13:37:59.820Z,70.82
2019-03-01T13:40:28.427Z,70.60
2019-03-01T13:42:56.984Z,70.46
2019-03-01T13:45:26.431Z,69.57
2019-03-01T13:47:55.079Z,70.32
2019-03-01T13:50:23.800Z,69.87
2019-03-01T13:52:52.400Z,69.99
2019-03-01T13:55:23.677Z,70.34
2019-03-01T13:57:51.698Z,70.33
2019-03-01T14:00:21.429Z,70.13
2019-03-01T14:02:50.228Z,70.34
2019-03-01T14:05:19.123Z,70.12
2019-03-01T14:07:48.579Z,70.79
2019-03-01T14:10:28.805Z,70.44
2019-03-01T14:12:57.427Z,69.97
2019-03-01T14:15:26.072Z,70.04
2019-03-01T14:18:00.446Z,69.08
2019-03-01T14:20:26.623Z,69.44
2019-03-01T14:22:55.252Z,69.32
2019-03-01T14:25:23.776Z,69.21
2019-03-01T14:27:53.052Z,69.49
2019-03-01T14:30:25.491Z,69.20
2019-03-01T14:32:57.685Z,69.02
2019-03-01T14:35:26.934Z,69.56
2019-03-01T14:37:55.639Z,69.68
2019-03-01T14:40:24.436Z,69.13
2019-03-01T14:42:53.176Z,69.47
2019-03-01T14:45:25.620Z,68.93
2019-03-01T14:47:54.613Z,71.81
2019-03-01T14:50:25.227Z,70.20
2019-03-01T14:52:58.415Z,68.48
2019-03-01T14:55:35.816Z,67.79
2019-03-01T14:58:10.448Z,67.87
2019-03-01T15:00:41.943Z,68.46
2019-03-01T15:03:36.692Z,68.69
2019-03-01T15:06:06.226Z,68.99
2019-03-01T15:08:35.147Z,68.65
2019-03-01T15:11:08.061Z,69.65
2019-03-01T15:13:37.044Z,69.15
2019-03-01T15:16:06.268Z,69.29
2019-03-01T15:18:35.428Z,68.80
2019-03-01T15:21:04.313Z,68.07
2019-03-01T15:23:32.926Z,67.86
2019-03-01T15:26:01.615Z,68.78
2019-03-01T15:28:30.281Z,68.83
2019-03-01T15:30:58.892Z,69.80
2019-03-01T15:33:27.481Z,69.28
2019-03-01T15:35:55.975Z,69.42
2019-03-01T15:38:27.723Z,69.39
2019-03-01T15:40:54.905Z,68.78
2019-03-01T15:43:26.561Z,68.27
2019-03-01T15:45:53.871Z,68.53
2019-03-01T15:48:22.459Z,69.65
2019-03-01T15:50:51.071Z,69.34
2019-03-01T15:53:24.568Z,68.94
2019-03-01T15:55:51.770Z,68.47
2019-03-01T15:58:20.432Z,68.14
2019-03-01T16:00:48.999Z,68.43
2019-03-01T16:03:17.597Z,68.33
2019-03-01T16:05:46.191Z,68.99
2019-03-01T16:08:14.810Z,68.27
2019-03-01T16:10:43.468Z,67.92
2019-03-01T16:13:13.287Z,67.87
2019-03-01T16:15:42.016Z,68.56
2019-03-01T16:18:10.606Z,67.91
2019-03-01T16:20:39.194Z,68.45
2019-03-01T16:23:07.878Z,68.83
2019-03-01T16:25:36.483Z,69.22
2019-03-01T16:28:05.056Z,68.91
2019-03-01T16:30:33.764Z,68.79
2019-03-01T16:33:02.284Z,69.02
2019-03-01T16:35:30.845Z,69.37
2019-03-01T16:38:01.656Z,74.13
2019-03-01T16:40:31.083Z,70.41
2019-03-01T16:42:59.918Z,69.39
2019-03-01T16:45:28.666Z,69.18
2019-03-01T16:47:57.266Z,68.94
2019-03-01T16:50:25.857Z,68.93
2019-03-01T16:52:54.493Z,69.71
2019-03-01T16:55:27.776Z,69.92
2019-03-01T16:58:06.269Z,69.76
2019-03-01T17:00:26.555Z,69.60
2019-03-01T17:02:58.092Z,69.70
2019-03-01T17:05:26.723Z,69.21
2019-03-01T17:07:55.293Z,69.62
2019-03-01T17:10:26.432Z,68.82
2019-03-01T17:12:55.848Z,69.25
2019-03-01T17:15:25.363Z,69.40
2019-03-01T17:17:54.065Z,68.72
2019-03-01T17:20:22.705Z,68.84
2019-03-01T17:22:51.323Z,69.21
2019-03-01T17:25:19.915Z,68.33
2019-03-01T17:27:49.632Z,68.33
2019-03-01T17:30:25.502Z,68.51
2019-03-01T17:32:54.081Z,68.07
2019-03-01T17:35:22.764Z,68.14
2019-03-01T17:37:52.262Z,67.45
2019-03-01T17:40:20.991Z,67.39
2019-03-01T17:42:53.257Z,67.11
2019-03-01T17:45:22.979Z,67.11
2019-03-01T17:47:51.758Z,67.61
2019-03-01T17:50:20.465Z,66.41
2019-03-01T17:52:52.673Z,66.38
2019-03-01T17:55:26.125Z,66.39
2019-03-01T17:57:54.681Z,65.82
2019-03-01T18:00:31.550Z,65.55
2019-03-01T18:03:00.131Z,65.12
2019-03-01T18:05:28.765Z,65.02
2019-03-01T18:07:59.847Z,65.83
2019-03-01T18:10:28.787Z,64.32
2019-03-01T18:12:58.017Z,65.31
2019-03-01T18:15:26.645Z,66.89
2019-03-01T18:17:55.277Z,66.35
2019-03-01T18:20:23.886Z,64.75
2019-03-01T18:22:52.495Z,64.90
2019-03-01T18:25:22.889Z,64.94
2019-03-01T18:27:53.027Z,64.94
2019-03-01T18:30:30.097Z,65.01
2019-03-01T18:32:58.677Z,65.63
2019-03-01T18:35:27.456Z,64.96
2019-03-01T18:37:56.234Z,65.37
2019-03-01T18:40:24.714Z,65.07
2019-03-01T18:42:53.384Z,64.96
2019-03-01T18:45:24.882Z,64.89
2019-03-01T18:47:53.472Z,64.59
2019-03-01T18:50:31.234Z,64.77
2019-03-01T18:53:03.596Z,65.29
2019-03-01T18:55:32.092Z,64.72
2019-03-01T18:58:00.675Z,64.80
2019-03-01T19:00:32.590Z,64.59
2019-03-01T19:03:04.329Z,64.62
2019-03-01T19:05:32.564Z,64.38
2019-03-01T19:08:04.670Z,64.90
2019-03-01T19:10:31.498Z,65.51
2019-03-01T19:13:03.692Z,64.67
2019-03-01T19:15:32.352Z,66.11
2019-03-01T19:18:00.968Z,64.45
2019-03-01T19:20:31.614Z,63.86
2019-03-01T19:23:00.263Z,65.69
2019-03-01T19:25:28.869Z,65.26
2019-03-01T19:27:57.528Z,64.55
2019-03-01T19:30:26.543Z,63.87
2019-03-01T19:32:55.189Z,64.53
2019-03-01T19:35:28.579Z,64.88
2019-03-01T19:37:54.216Z,65.69
2019-03-01T19:40:24.157Z,65.27
2019-03-01T19:42:52.704Z,64.22
2019-03-01T19:45:21.925Z,65.00
2019-03-01T19:47:50.503Z,64.63
2019-03-01T19:50:24.702Z,63.88
2019-03-01T19:52:51.973Z,63.77
2019-03-01T19:55:20.651Z,64.97
2019-03-01T19:57:49.247Z,67.52
2019-03-01T20:00:26.235Z,65.45
2019-03-01T20:02:54.773Z,65.21
2019-03-01T20:05:31.988Z,64.97
2019-03-01T20:07:58.682Z,64.60
2019-03-01T20:10:27.364Z,65.78
2019-03-01T20:12:55.973Z,65.58
2019-03-01T20:15:26.128Z,65.11
2019-03-01T20:17:54.713Z,65.49
2019-03-01T20:20:24.545Z,64.20
2019-03-01T20:22:54.373Z,64.96
2019-03-01T20:25:23.660Z,65.53
2019-03-01T20:27:52.371Z,64.81
2019-03-01T20:30:28.640Z,66.40
2019-03-01T20:32:53.934Z,66.93
2019-03-01T20:35:23.213Z,65.75
2019-03-01T20:37:51.874Z,65.87
2019-03-01T20:40:22.731Z,65.52
2019-03-01T20:42:51.038Z,64.12
2019-03-01T20:45:22.305Z,64.36
2019-03-01T20:47:53.560Z,63.77
2019-03-01T20:50:21.312Z,62.84
2019-03-01T20:52:49.964Z,63.22
2019-03-01T20:55:19.067Z,63.08
2019-03-01T20:57:47.690Z,64.14
2019-03-01T21:00:26.073Z,64.95
2019-03-01T21:02:54.303Z,64.27
2019-03-01T21:05:24.873Z,62.79
2019-03-01T21:07:54.129Z,62.78
2019-03-01T21:10:24.765Z,62.73
2019-03-01T21:12:53.401Z,62.18
2019-03-01T21:15:22.370Z,63.17
2019-03-01T21:17:52.856Z,63.10
2019-03-01T21:20:22.170Z,63.16
2019-03-01T21:22:50.725Z,62.31
2019-03-01T21:25:20.714Z,63.07
2019-03-01T21:27:49.420Z,62.14
2019-03-01T21:30:24.133Z,61.60
2019-03-01T21:32:53.435Z,62.81
2019-03-01T21:35:22.910Z,62.84
2019-03-01T21:37:52.246Z,62.96
2019-03-01T21:40:20.852Z,63.18
2019-03-01T21:42:52.807Z,63.83
2019-03-01T21:45:26.088Z,63.84
2019-03-01T21:47:54.766Z,64.14
2019-03-01T21:50:23.344Z,62.94
2019-03-01T21:52:51.990Z,63.10
2019-03-01T21:55:24.977Z,63.03
2019-03-01T21:57:53.330Z,63.04
2019-03-01T22:00:25.339Z,63.18
2019-03-01T22:02:54.268Z,62.68
2019-03-01T22:05:23.053Z,63.06
2019-03-01T22:07:51.671Z,63.40
2019-03-01T22:10:20.498Z,63.86
2019-03-01T22:12:49.959Z,65.00
2019-03-01T22:15:27.140Z,62.72
2019-03-01T22:17:56.242Z,63.96
2019-03-01T22:20:24.752Z,63.62
2019-03-01T22:22:53.498Z,63.17
2019-03-01T22:25:22.124Z,63.55
2019-03-01T22:27:50.741Z,63.98
2019-03-01T22:30:35.325Z,63.32
2019-03-01T22:33:03.989Z,63.41
2019-03-01T22:35:32.516Z,64.05
2019-03-01T22:38:04.493Z,63.66
2019-03-01T22:40:31.550Z,62.89
2019-03-01T22:43:00.172Z,63.58
2019-03-01T22:45:28.703Z,63.97
2019-03-01T22:47:57.244Z,63.64
2019-03-01T22:50:25.899Z,63.17
2019-03-01T22:52:54.469Z,64.83
2019-03-01T22:55:23.048Z,64.16
2019-03-01T22:57:51.516Z,63.50
2019-03-01T23:00:27.681Z,64.29
2019-03-01T23:02:56.431Z,63.81
2019-03-01T23:05:25.121Z,64.87
2019-03-01T23:07:56.933Z,64.36
2019-03-01T23:10:24.201Z,64.67
2019-03-01T23:12:52.797Z,63.15
2019-03-01T23:15:21.323Z,64.59
2019-03-01T23:17:50.883Z,65.12
2019-03-01T23:20:19.338Z,63.55
2019-03-01T23:22:47.888Z,64.18
2019-03-01T23:25:16.317Z,64.72
2019-03-01T23:27:44.951Z,64.09
2019-03-01T23:30:13.745Z,64.48
2019-03-01T23:32:42.348Z,64.02
2019-03-01T23:35:11.144Z,63.69
2019-03-01T23:37:39.907Z,65.08
2019-03-01T23:40:08.635Z,65.36
2019-03-01T23:42:37.368Z,65.37
2019-03-01T23:45:09.064Z,65.67
2019-03-01T23:47:38.266Z,65.51
2019-03-01T23:50:11.038Z,65.18
2019-03-01T23:52:39.727Z,65.78
2019-03-01T23:55:08.976Z,66.07
2019-03-01T23:57:38.055Z,66.38
